Time;durP1;ratioP1;P1;durP2;ratioP2;P2;SDS_P1;SDS_P2;PMS_P1;PMS_P2;Temp;Humidity;BMP_temperature;BMP_pressure;BME280_temperature;BME280_humidity;BME280_pressure;Samples;Min_cycle;Max_cycle;Signal;HPM_P1;HPM_P2
2022/08/08 00:00:13;;;;;;;6.97;4.70;;;18.20;1.00;;;;;;6183384;23;20166;-92
2022/08/08 00:02:51;;;;;;;8.43;5.20;;;18.10;1.00;;;;;;6175481;23;20207;-92
2022/08/08 00:06:16;;;;;;;8.43;5.13;;;18.00;1.00;;;;;;6144196;23;20149;-91
2022/08/08 00:08:47;;;;;;;8.40;5.30;;;18.00;1.00;;;;;;6111268;23;20186;-91
2022/08/08 00:11:51;;;;;;;7.97;4.73;;;17.90;1.00;;;;;;6137488;23;20161;-92
2022/08/08 00:15:11;;;;;;;7.30;4.83;;;17.80;1.00;;;;;;6155332;23;20189;-90
2022/08/08 00:18:17;;;;;;;12.27;5.53;;;17.80;1.00;;;;;;6094716;23;20162;-91
2022/08/08 00:21:00;;;;;;;7.97;5.83;;;17.80;1.00;;;;;;6070752;23;20187;-90
2022/08/08 00:23:48;;;;;;;7.13;5.07;;;17.80;1.00;;;;;;6094096;23;20149;-89
2022/08/08 00:26:35;;;;;;;8.73;5.30;;;17.80;1.00;;;;;;6131812;23;20219;-89
2022/08/08 00:29:22;;;;;;;8.87;5.60;;;17.80;1.00;;;;;;6157277;23;20146;-92
2022/08/08 00:31:58;;;;;;;8.77;5.73;;;17.70;1.00;;;;;;6164336;23;20149;-91
2022/08/08 00:37:29;;;;;;;7.53;5.20;;;17.70;1.00;;;;;;6166570;23;20242;-92
2022/08/08 00:40:26;;;;;;;10.63;6.47;;;17.70;1.00;;;;;;6174854;23;20126;-92
2022/08/08 00:43:30;;;;;;;8.33;5.53;;;17.70;1.00;;;;;;6180712;23;20670;-90
2022/08/08 00:46:28;;;;;;;8.07;5.80;;;17.60;1.00;;;;;;6137991;23;20174;-91
2022/08/08 00:49:01;;;;;;;9.17;6.60;;;17.60;1.00;;;;;;6133000;23;20173;-91
2022/08/08 00:52:10;;;;;;;8.97;6.00;;;17.60;1.00;;;;;;6134318;23;20151;-93
2022/08/08 00:54:52;;;;;;;8.73;5.43;;;17.60;1.00;;;;;;6134662;23;20212;-93
2022/08/08 00:58:22;;;;;;;10.80;6.60;;;17.50;1.00;;;;;;6133643;23;20563;-93
2022/08/08 01:01:27;;;;;;;8.07;6.23;;;17.50;1.00;;;;;;6139240;23;20282;-92
2022/08/08 01:04:27;;;;;;;8.33;6.57;;;17.50;1.00;;;;;;6137816;23;20153;-92
2022/08/08 01:07:12;;;;;;;10.33;6.20;;;17.50;1.00;;;;;;6135786;23;20184;-92
2022/08/08 01:10:05;;;;;;;11.50;6.40;;;17.40;1.00;;;;;;6136121;23;20147;-93
2022/08/08 01:12:52;;;;;;;10.80;6.80;;;17.40;1.00;;;;;;6132657;23;20215;-94
2022/08/08 01:15:54;;;;;;;9.53;6.60;;;17.50;1.00;;;;;;6133691;23;20229;-94
2022/08/08 01:18:48;;;;;;;8.53;6.47;;;17.40;1.00;;;;;;6135523;23;20153;-93
2022/08/08 01:21:35;;;;;;;9.80;7.40;;;17.40;1.00;;;;;;6145734;23;20185;-89
2022/08/08 01:24:37;;;;;;;9.10;6.67;;;17.30;1.00;;;;;;6158798;23;20155;-89
2022/08/08 01:27:26;;;;;;;12.57;7.07;;;17.30;1.00;;;;;;6105272;23;20182;-92
2022/08/08 01:30:28;;;;;;;9.33;6.60;;;17.30;1.00;;;;;;6158491;23;20199;-90
2022/08/08 01:33:28;;;;;;;11.60;7.00;;;17.30;1.00;;;;;;6158294;23;20126;-91
2022/08/08 01:36:59;;;;;;;9.17;6.93;;;17.30;1.00;;;;;;6141321;23;20152;-92
2022/08/08 01:40:00;;;;;;;10.97;7.77;;;17.20;1.00;;;;;;6077876;23;20247;-94
2022/08/08 01:43:06;;;;;;;13.13;7.77;;;17.20;1.00;;;;;;6138069;23;20169;-92
2022/08/08 01:46:01;;;;;;;9.83;7.57;;;17.20;1.00;;;;;;6137605;23;20195;-92
2022/08/08 01:49:32;;;;;;;11.33;9.03;;;17.10;1.00;;;;;;6162050;23;20162;-90
2022/08/08 01:52:33;;;;;;;12.77;8.00;;;17.10;1.00;;;;;;6134902;23;20156;-93
2022/08/08 01:55:30;;;;;;;10.80;8.17;;;17.10;1.00;;;;;;6132553;23;20148;-94
2022/08/08 01:58:39;;;;;;;10.27;8.33;;;17.00;1.70;;;;;;6159009;23;20583;-93
2022/08/08 02:01:37;;;;;;;11.37;8.63;;;17.00;4.80;;;;;;6133937;23;20521;-93
2022/08/08 02:05:13;;;;;;;13.07;9.40;;;17.00;9.40;;;;;;6135655;23;20143;-93
2022/08/08 02:08:24;;;;;;;12.00;9.57;;;16.90;11.50;;;;;;6135503;23;20166;-92
2022/08/08 02:11:19;;;;;;;13.07;9.37;;;16.90;12.50;;;;;;6135568;23;20154;-92
2022/08/08 02:13:57;;;;;;;12.97;9.63;;;17.00;13.90;;;;;;6134324;23;20189;-94
2022/08/08 02:16:27;;;;;;;11.63;9.83;;;17.00;11.80;;;;;;6133286;23;20146;-94
2022/08/08 02:18:57;;;;;;;11.80;10.17;;;17.00;13.60;;;;;;6133765;23;20159;-92
2022/08/08 02:24:51;;;;;;;12.33;10.23;;;16.90;17.00;;;;;;6161119;23;20162;-93
2022/08/08 02:27:25;;;;;;;15.67;10.47;;;17.00;15.70;;;;;;6137196;23;20148;-93
2022/08/08 02:30:17;;;;;;;12.27;9.80;;;16.90;20.00;;;;;;6135707;23;20561;-93
2022/08/08 02:33:02;;;;;;;13.40;11.03;;;17.00;18.50;;;;;;6163137;23;20227;-93
2022/08/08 02:36:06;;;;;;;13.27;10.10;;;16.90;21.60;;;;;;6134747;23;20158;-91
2022/08/08 02:39:20;;;;;;;13.00;10.80;;;16.90;21.50;;;;;;6134396;23;20151;-93
2022/08/08 02:42:03;;;;;;;14.23;10.53;;;17.00;20.50;;;;;;6134506;23;20194;-94
2022/08/08 02:45:12;;;;;;;12.33;10.00;;;16.90;20.20;;;;;;6134111;23;20154;-93
2022/08/08 02:48:11;;;;;;;13.43;10.40;;;17.00;21.50;;;;;;6042275;23;20168;-94
2022/08/08 02:51:05;;;;;;;13.97;10.57;;;16.90;21.60;;;;;;6135272;23;20664;-92
2022/08/08 02:53:46;;;;;;;14.07;11.63;;;16.80;25.70;;;;;;6134953;23;20151;-93
2022/08/08 02:56:50;;;;;;;14.83;11.00;;;16.80;28.90;;;;;;6134071;23;20154;-93
2022/08/08 02:59:53;;;;;;;13.63;11.50;;;16.70;31.70;;;;;;6176457;23;20135;-92
2022/08/08 03:02:47;;;;;;;13.83;11.40;;;16.70;31.70;;;;;;6169270;23;20146;-94
2022/08/08 03:05:22;;;;;;;13.60;11.43;;;16.70;30.60;;;;;;6160990;23;20213;-93
2022/08/08 03:08:13;;;;;;;14.93;11.30;;;16.60;32.90;;;;;;6134640;23;20170;-93
2022/08/08 03:11:31;;;;;;;14.47;11.60;;;16.60;37.20;;;;;;6136180;23;20154;-94
2022/08/08 03:14:35;;;;;;;19.10;12.87;;;16.50;40.50;;;;;;6140722;23;20254;-93
2022/08/08 03:17:27;;;;;;;16.57;13.37;;;16.40;42.20;;;;;;6173919;23;20119;-92
2022/08/08 03:20:12;;;;;;;14.63;11.90;;;16.30;45.60;;;;;;6132050;23;20147;-93
2022/08/08 03:22:48;;;;;;;19.57;13.17;;;16.30;49.30;;;;;;6135713;23;20178;-93
2022/08/08 03:25:25;;;;;;;15.17;12.80;;;16.30;49.50;;;;;;6134468;23;20206;-94
2022/08/08 03:28:05;;;;;;;16.70;13.77;;;16.20;51.70;;;;;;6133977;23;20587;-94
2022/08/08 03:30:34;;;;;;;16.37;13.80;;;16.20;55.50;;;;;;6144543;23;20595;-95
2022/08/08 03:33:17;;;;;;;22.30;13.97;;;16.20;57.00;;;;;;6146528;23;20146;-95
2022/08/08 03:35:48;;;;;;;16.53;13.87;;;16.20;57.50;;;;;;6144854;23;20240;-93
2022/08/08 03:38:20;;;;;;;18.20;14.33;;;16.20;56.90;;;;;;6169273;23;20166;-95
2022/08/08 03:40:54;;;;;;;17.70;14.03;;;16.20;56.70;;;;;;6138088;23;20591;-95
2022/08/08 03:43:20;;;;;;;16.87;14.13;;;16.20;58.00;;;;;;6136357;23;20202;-95
2022/08/08 03:46:06;;;;;;;15.53;13.90;;;16.30;57.80;;;;;;6137718;23;20169;-95
2022/08/08 03:48:37;;;;;;;17.50;13.87;;;16.20;57.50;;;;;;6161714;23;20138;-95
2022/08/08 03:51:08;;;;;;;17.10;14.20;;;16.20;58.00;;;;;;6136482;23;20499;-95
2022/08/08 03:53:47;;;;;;;16.60;13.93;;;16.10;60.50;;;;;;6136665;23;20178;-95
2022/08/08 03:56:17;;;;;;;18.13;13.77;;;16.10;62.20;;;;;;6135554;23;20496;-95
2022/08/08 03:58:53;;;;;;;19.03;14.50;;;16.10;62.40;;;;;;6137106;23;20478;-95
2022/08/08 04:01:39;;;;;;;17.87;15.83;;;16.10;64.50;;;;;;6138557;23;20177;-95
2022/08/08 04:04:07;;;;;;;19.47;15.90;;;16.00;65.80;;;;;;6138621;23;20159;-95
2022/08/08 04:06:40;;;;;;;17.20;15.40;;;16.00;68.00;;;;;;6136079;23;20146;-95
2022/08/08 04:09:10;;;;;;;22.17;16.10;;;16.00;68.90;;;;;;6160691;23;20131;-95
2022/08/08 04:11:45;;;;;;;18.23;15.97;;;16.00;70.00;;;;;;6113106;23;20221;-95
2022/08/08 04:14:13;;;;;;;17.40;14.93;;;16.00;70.00;;;;;;6162817;23;20192;-95
2022/08/08 04:16:44;;;;;;;22.20;16.53;;;16.10;69.50;;;;;;6138940;23;20205;-95
2022/08/08 04:19:17;;;;;;;20.30;16.37;;;16.10;70.60;;;;;;6138401;23;20156;-94
2022/08/08 04:21:49;;;;;;;19.57;16.23;;;16.10;69.00;;;;;;6140421;23;20201;-94
2022/08/08 04:24:18;;;;;;;20.93;16.87;;;16.10;67.30;;;;;;6140144;23;20153;-93
2022/08/08 04:26:48;;;;;;;19.67;15.90;;;16.10;66.20;;;;;;6140742;23;20153;-94
2022/08/08 04:29:17;;;;;;;19.90;16.47;;;16.10;67.80;;;;;;6168158;23;20178;-94
2022/08/08 04:31:44;;;;;;;21.27;16.37;;;16.00;71.60;;;;;;6117144;23;20154;-93
2022/08/08 04:34:11;;;;;;;20.87;15.80;;;16.00;72.50;;;;;;6167920;23;20154;-94
2022/08/08 04:36:38;;;;;;;18.20;16.30;;;15.90;74.30;;;;;;6118020;23;20165;-94
2022/08/08 04:39:05;;;;;;;18.43;16.33;;;15.90;75.40;;;;;;6143053;23;20207;-94
2022/08/08 04:41:31;;;;;;;18.70;16.70;;;16.00;75.40;;;;;;6139053;23;20197;-94
2022/08/08 04:43:57;;;;;;;20.40;17.40;;;16.00;76.10;;;;;;6112374;23;20588;-96
2022/08/08 04:46:23;;;;;;;17.23;15.40;;;16.10;74.30;;;;;;6134794;23;20169;-93
2022/08/08 04:48:50;;;;;;;19.40;16.97;;;16.10;70.60;;;;;;6136397;23;20154;-94
2022/08/08 04:51:16;;;;;;;20.30;16.60;;;16.10;68.70;;;;;;6134532;23;20154;-93
2022/08/08 04:53:42;;;;;;;18.27;16.33;;;16.20;70.60;;;;;;6134534;23;20245;-95
2022/08/08 04:56:08;;;;;;;21.43;16.67;;;16.00;73.90;;;;;;6135724;23;20229;-93
2022/08/08 04:58:36;;;;;;;20.10;17.27;;;16.00;74.00;;;;;;6139473;23;20533;-93
2022/08/08 05:01:12;;;;;;;18.20;16.27;;;15.90;76.00;;;;;;6167805;23;20188;-93
2022/08/08 05:03:38;;;;;;;22.93;17.13;;;15.90;77.60;;;;;;6136269;23;20206;-94
2022/08/08 05:06:06;;;;;;;22.97;17.43;;;15.90;81.00;;;;;;6136052;23;20179;-94
2022/08/08 05:08:35;;;;;;;22.77;17.33;;;15.90;81.20;;;;;;6113749;23;20186;-93
2022/08/08 05:11:02;;;;;;;24.07;17.77;;;16.00;79.40;;;;;;6136820;23;20170;-93
2022/08/08 05:13:31;;;;;;;20.70;17.40;;;16.00;79.30;;;;;;6140595;23;20209;-92
2022/08/08 05:16:00;;;;;;;19.87;16.67;;;16.10;78.50;;;;;;6168967;23;20126;-95
2022/08/08 05:18:27;;;;;;;20.83;16.83;;;16.10;76.80;;;;;;6141181;23;20217;-94
2022/08/08 05:20:58;;;;;;;21.80;16.93;;;16.20;75.10;;;;;;6139937;23;20512;-92
2022/08/08 05:23:27;;;;;;;22.80;17.00;;;16.30;73.40;;;;;;6142076;23;20143;-94
2022/08/08 05:25:56;;;;;;;22.90;16.73;;;16.30;66.30;;;;;;6144927;23;20217;-94
2022/08/08 05:28:23;;;;;;;19.93;16.90;;;16.10;65.00;;;;;;6143902;23;20161;-94
2022/08/08 05:30:49;;;;;;;21.00;16.57;;;16.20;68.10;;;;;;6163372;23;20154;-94
2022/08/08 05:33:16;;;;;;;21.07;16.60;;;16.30;68.30;;;;;;6149990;23;20151;-92
2022/08/08 05:35:45;;;;;;;22.10;16.40;;;16.30;66.70;;;;;;6150405;23;20147;-95
2022/08/08 05:38:17;;;;;;;18.90;15.30;;;16.30;66.50;;;;;;6141399;23;20141;-93
2022/08/08 05:40:49;;;;;;;20.80;16.13;;;16.30;63.30;;;;;;6141116;23;20201;-95
2022/08/08 05:43:27;;;;;;;20.30;16.30;;;16.50;62.20;;;;;;6140598;23;20149;-94
2022/08/08 05:46:00;;;;;;;18.73;15.37;;;16.50;57.00;;;;;;6140184;23;20174;-95
2022/08/08 05:48:27;;;;;;;20.23;15.37;;;16.30;57.40;;;;;;6137062;23;20584;-95
2022/08/08 05:50:53;;;;;;;20.80;14.83;;;16.50;57.60;;;;;;6137573;23;20576;-95
2022/08/08 05:53:25;;;;;;;21.17;15.50;;;16.50;54.30;;;;;;6144103;23;20157;-89
2022/08/08 05:55:53;;;;;;;18.77;15.33;;;16.60;54.30;;;;;;6159946;23;20216;-93
2022/08/08 05:58:27;;;;;;;20.57;14.93;;;16.50;52.10;;;;;;6149945;23;20158;-94
2022/08/08 06:01:11;;;;;;;17.67;14.53;;;16.80;51.90;;;;;;6148674;23;20163;-94
2022/08/08 06:07:41;;;;;;;19.73;14.53;;;17.00;44.80;;;;;;6059645;23;20272;-94
2022/08/08 06:10:13;;;;;;;16.80;13.67;;;17.20;41.80;;;;;;6054570;23;20151;-93
2022/08/08 06:12:43;;;;;;;16.40;13.00;;;17.20;34.70;;;;;;6127865;23;20158;-95
2022/08/08 06:15:18;;;;;;;20.67;13.73;;;17.20;31.80;;;;;;6150919;23;20146;-92
2022/08/08 06:17:47;;;;;;;17.87;14.20;;;17.30;29.80;;;;;;6127308;23;20195;-92
2022/08/08 06:20:30;;;;;;;18.00;13.63;;;17.30;27.40;;;;;;6155292;23;20159;-90
2022/08/08 06:22:59;;;;;;;14.73;13.00;;;17.30;26.20;;;;;;6150620;23;20165;-91
2022/08/08 06:25:32;;;;;;;17.60;13.73;;;17.30;27.20;;;;;;6156562;23;20149;-90
2022/08/08 06:28:36;;;;;;;14.00;12.57;;;17.40;26.80;;;;;;6158728;23;20166;-89
2022/08/08 06:31:05;;;;;;;19.20;12.87;;;17.40;24.80;;;;;;6146244;23;20156;-91
2022/08/08 06:33:59;;;;;;;18.17;12.50;;;17.60;21.10;;;;;;6160014;23;20163;-91
2022/08/08 06:36:39;;;;;;;18.17;11.47;;;17.60;18.80;;;;;;6184818;23;20157;-90
2022/08/08 06:39:11;;;;;;;19.60;12.43;;;17.80;16.30;;;;;;6184998;23;20147;-89
2022/08/08 06:41:47;;;;;;;16.17;12.33;;;17.90;10.80;;;;;;6159603;23;20170;-92
2022/08/08 06:44:39;;;;;;;14.33;10.87;;;18.00;12.40;;;;;;6159453;23;20154;-93
2022/08/08 06:47:13;;;;;;;15.90;11.00;;;18.10;3.10;;;;;;6158410;23;20171;-88
2022/08/08 06:49:46;;;;;;;16.33;11.10;;;18.30;1.00;;;;;;6159748;23;20153;-92
2022/08/08 06:52:22;;;;;;;14.77;10.13;;;18.20;1.00;;;;;;6184639;23;20142;-90
2022/08/08 06:58:16;;;;;;;11.93;10.20;;;18.10;1.00;;;;;;6168915;23;20141;-93
2022/08/08 07:01:09;;;;;;;10.23;8.50;;;18.30;1.00;;;;;;6140701;23;20230;-92
2022/08/08 07:04:22;;;;;;;10.50;8.20;;;18.30;1.00;;;;;;6140459;23;20185;-94
2022/08/08 07:07:24;;;;;;;12.53;9.03;;;18.40;1.00;;;;;;6137368;23;20182;-90
2022/08/08 07:10:31;;;;;;;11.23;8.60;;;18.60;1.00;;;;;;6135542;23;20143;-93
2022/08/08 07:13:16;;;;;;;16.10;8.90;;;18.80;1.00;;;;;;6137895;23;20149;-93
2022/08/08 07:16:14;;;;;;;12.83;9.23;;;18.90;1.00;;;;;;6163484;23;20161;-91
2022/08/08 07:18:56;;;;;;;11.80;8.57;;;19.00;1.00;;;;;;6155747;23;20154;-93
2022/08/08 07:21:28;;;;;;;11.03;7.87;;;19.00;1.00;;;;;;6158722;23;20181;-93
2022/08/08 07:24:28;;;;;;;10.77;8.23;;;18.90;1.00;;;;;;6158833;23;20136;-89
2022/08/08 07:26:56;;;;;;;12.03;8.00;;;18.90;1.00;;;;;;6164538;23;20148;-88
2022/08/08 07:29:23;;;;;;;11.23;7.37;;;18.90;1.00;;;;;;6158760;23;20144;-93
2022/08/08 07:31:49;;;;;;;10.57;7.23;;;18.80;1.00;;;;;;6107834;23;20162;-90
2022/08/08 07:34:17;;;;;;;11.23;7.73;;;18.90;1.00;;;;;;6159067;23;20154;-90
2022/08/08 07:36:46;;;;;;;10.40;7.10;;;19.10;1.00;;;;;;6158284;23;20163;-92
2022/08/08 07:39:16;;;;;;;10.17;6.73;;;19.10;1.00;;;;;;6158865;23;20182;-92
2022/08/08 07:41:42;;;;;;;9.57;7.47;;;19.00;1.00;;;;;;6157941;23;20186;-92
2022/08/08 07:44:09;;;;;;;8.57;7.40;;;19.00;1.00;;;;;;6154960;23;20166;-90
2022/08/08 07:46:37;;;;;;;9.13;7.37;;;18.90;1.00;;;;;;6152730;23;20181;-94
2022/08/08 07:49:04;;;;;;;9.77;7.77;;;19.00;1.00;;;;;;6144839;23;20159;-95
2022/08/08 07:51:35;;;;;;;12.97;7.67;;;19.20;1.00;;;;;;6169636;23;20140;-95
2022/08/08 07:54:20;;;;;;;11.50;8.30;;;19.30;1.00;;;;;;6138798;23;20188;-93
2022/08/08 07:57:21;;;;;;;11.40;8.13;;;19.30;1.00;;;;;;6138187;23;20236;-91
2022/08/08 08:00:09;;;;;;;11.47;7.93;;;19.40;1.00;;;;;;6164495;23;20158;-94
2022/08/08 08:02:43;;;;;;;13.60;8.23;;;19.30;1.00;;;;;;6140395;23;20253;-95
2022/08/08 08:05:28;;;;;;;10.77;7.53;;;19.30;1.00;;;;;;6142923;23;20149;-95
2022/08/08 08:08:29;;;;;;;14.40;8.27;;;19.40;1.00;;;;;;6166538;23;20184;-92
2022/08/08 08:10:59;;;;;;;10.03;7.53;;;19.50;1.00;;;;;;6137483;23;20151;-94
2022/08/08 08:14:05;;;;;;;9.73;6.87;;;19.70;1.00;;;;;;6142351;23;20171;-94
2022/08/08 08:16:42;;;;;;;9.97;6.10;;;19.60;1.00;;;;;;6164465;23;20218;-94
2022/08/08 08:19:13;;;;;;;10.10;6.30;;;19.70;1.00;;;;;;6139174;23;20151;-95
2022/08/08 08:21:40;;;;;;;8.70;6.23;;;19.70;1.00;;;;;;6136064;23;20209;-93
2022/08/08 08:24:06;;;;;;;9.47;6.10;;;19.80;1.00;;;;;;6140978;23;20199;-95
2022/08/08 08:26:56;;;;;;;10.10;6.57;;;20.00;1.00;;;;;;6143668;23;20164;-93
2022/08/08 08:29:25;;;;;;;9.67;6.50;;;20.00;1.00;;;;;;6119509;23;20204;-92
2022/08/08 08:31:52;;;;;;;9.60;5.57;;;20.20;1.00;;;;;;6151078;23;20214;-95
2022/08/08 08:34:21;;;;;;;8.13;6.00;;;20.40;1.00;;;;;;6154888;23;20197;-95
2022/08/08 08:36:55;;;;;;;6.67;5.37;;;20.40;1.00;;;;;;6121495;23;20178;-95
2022/08/08 08:40:02;;;;;;;11.40;5.53;;;20.40;1.00;;;;;;6147981;23;20145;-93
2022/08/08 08:42:55;;;;;;;8.73;5.77;;;20.40;1.00;;;;;;6171271;23;20161;-91
2022/08/08 08:45:21;;;;;;;8.93;5.90;;;20.50;1.00;;;;;;6117539;23;20181;-92
2022/08/08 08:48:09;;;;;;;14.23;5.90;;;20.50;1.00;;;;;;6153834;23;20169;-90
2022/08/08 08:50:40;;;;;;;9.33;5.83;;;20.40;1.00;;;;;;6152984;23;20159;-94
2022/08/08 08:53:12;;;;;;;7.60;5.97;;;20.50;1.00;;;;;;6119345;23;20240;-94
2022/08/08 08:55:58;;;;;;;8.87;5.37;;;20.50;1.00;;;;;;6148822;23;20161;-92
2022/08/08 08:58:43;;;;;;;10.33;5.90;;;20.50;1.00;;;;;;6147002;23;20161;-95
2022/08/08 09:01:26;;;;;;;9.77;5.53;;;20.50;99.90;;;;;;6138536;23;20832;-95
2022/08/08 09:04:24;;;;;;;6.40;5.50;;;20.70;99.90;;;;;;6171575;23;20138;-94
2022/08/08 09:06:57;;;;;;;9.83;5.90;;;20.80;1.00;;;;;;6141942;23;20626;-95
2022/08/08 09:09:26;;;;;;;7.87;6.30;;;20.90;1.00;;;;;;6121380;23;20162;-95
2022/08/08 09:11:57;;;;;;;9.93;6.10;;;21.00;99.90;;;;;;6145483;23;20154;-95
2022/08/08 09:14:30;;;;;;;10.93;5.40;;;21.00;99.90;;;;;;6147405;23;20156;-94
2022/08/08 09:17:32;;;;;;;7.60;5.60;;;20.90;99.90;;;;;;6146576;23;20158;-93
2022/08/08 09:20:02;;;;;;;7.80;5.23;;;20.90;99.90;;;;;;6174871;23;20139;-94
2022/08/08 09:22:30;;;;;;;8.93;4.33;;;21.10;99.90;;;;;;6143085;23;20196;-94
2022/08/08 09:25:00;;;;;;;6.83;5.40;;;21.20;99.90;;;;;;6143455;23;20479;-94
2022/08/08 09:27:32;;;;;;;8.73;5.37;;;21.20;99.90;;;;;;6119196;23;20168;-93
2022/08/08 09:30:28;;;;;;;9.73;4.80;;;21.20;99.90;;;;;;6128539;23;20158;-91
2022/08/08 09:33:36;;;;;;;9.37;4.87;;;21.40;99.90;;;;;;6151572;23;20174;-94
2022/08/08 09:36:27;;;;;;;8.00;5.03;;;21.10;99.90;;;;;;6151602;23;20177;-94
2022/08/08 09:39:28;;;;;;;9.90;5.50;;;21.40;99.90;;;;;;6129529;23;20160;-94
2022/08/08 09:42:39;;;;;;;;;;;;;;;;;;;;;
2022/08/08 09:45:45;;;;;;;8.03;5.10;;;21.60;7.30;;;;;;6097126;23;20178;-92
2022/08/08 09:48:47;;;;;;;9.57;4.87;;;21.40;99.90;;;;;;6118848;23;20178;-93
2022/08/08 09:51:48;;;;;;;8.33;5.20;;;21.30;99.90;;;;;;6159688;23;20156;-92
2022/08/08 09:55:05;;;;;;;8.83;5.07;;;21.60;86.80;;;;;;6151537;23;20167;-92
2022/08/08 09:57:38;;;;;;;6.47;4.47;;;21.80;2.80;;;;;;6115290;23;20165;-95
2022/08/08 10:04:21;;;;;;;10.40;4.23;;;22.10;99.90;;;;;;6154930;23;20162;-95
2022/08/08 10:07:39;;;;;;;3.73;3.30;;;22.10;1.00;;;;;;6033980;23;20326;-96
2022/08/08 10:10:23;;;;;;;4.23;3.13;;;22.20;99.90;;;;;;6031872;23;20175;-91
2022/08/08 10:12:53;;;;;;;5.73;3.00;;;22.50;1.00;;;;;;6019896;23;20165;-95
2022/08/08 10:15:21;;;;;;;8.10;3.67;;;22.50;99.90;;;;;;6020060;23;20240;-92
2022/08/08 10:17:50;;;;;;;6.67;3.50;;;22.70;1.00;;;;;;6027194;23;20161;-88
2022/08/08 10:20:17;;;;;;;7.17;3.07;;;22.70;1.00;;;;;;6024201;23;20160;-91
2022/08/08 10:22:51;;;;;;;8.10;3.47;;;22.50;1.00;;;;;;6030994;23;20200;-92
2022/08/08 10:25:23;;;;;;;7.27;3.00;;;22.40;1.00;;;;;;6091136;23;20160;-93
2022/08/08 10:27:58;;;;;;;8.27;2.93;;;22.40;1.00;;;;;;6066591;23;20166;-93
2022/08/08 10:30:33;;;;;;;4.37;2.63;;;22.40;99.90;;;;;;6070389;23;20173;-92
2022/08/08 10:33:00;;;;;;;4.83;2.50;;;22.50;1.00;;;;;;6150139;23;20153;-92
2022/08/08 10:35:31;;;;;;;4.53;2.00;;;22.50;99.90;;;;;;6129382;23;20533;-95
2022/08/08 10:38:06;;;;;;;3.97;2.67;;;22.60;99.90;;;;;;6175402;23;20141;-87
2022/08/08 10:40:36;;;;;;;4.80;2.30;;;22.60;1.00;;;;;;6129293;23;20191;-87
2022/08/08 10:43:44;;;;;;;4.90;2.23;;;22.50;99.90;;;;;;6158764;23;20179;-86
2022/08/08 10:46:51;;;;;;;4.83;2.27;;;22.70;99.90;;;;;;6159290;23;20140;-89
2022/08/08 10:49:24;;;;;;;6.07;2.60;;;22.60;1.00;;;;;;6158203;23;20165;-85
2022/08/08 10:51:52;;;;;;;6.70;2.80;;;22.90;99.90;;;;;;6159440;23;20158;-91
2022/08/08 10:54:27;;;;;;;4.93;2.10;;;23.30;1.00;;;;;;6159716;23;20139;-89
2022/08/08 10:57:08;;;;;;;4.53;2.17;;;23.30;99.90;;;;;;6159070;23;20154;-86
2022/08/08 10:59:39;;;;;;;3.50;2.10;;;23.20;1.00;;;;;;6183238;23;20150;-88
2022/08/08 11:02:07;;;;;;;2.73;1.80;;;23.10;99.90;;;;;;6156038;23;20196;-86
2022/08/08 11:05:07;;;;;;;8.63;3.07;;;23.00;1.00;;;;;;6180203;23;20163;-87
2022/08/08 11:08:19;;;;;;;5.80;2.30;;;23.00;1.00;;;;;;6157444;23;20162;-90
2022/08/08 11:14:14;;;;;;;5.93;1.83;;;23.00;99.90;;;;;;6172587;23;20144;-90
2022/08/08 11:17:04;;;;;;;5.97;2.20;;;23.10;1.00;;;;;;6151788;23;20153;-92
2022/08/08 11:19:34;;;;;;;3.67;1.90;;;23.40;1.00;;;;;;6149552;23;20138;-90
2022/08/08 11:22:04;;;;;;;5.83;2.17;;;23.50;1.00;;;;;;6151491;23;20188;-92
2022/08/08 11:24:34;;;;;;;4.47;1.90;;;23.50;21.60;;;;;;6148762;23;20157;-89
2022/08/08 11:27:05;;;;;;;4.23;1.80;;;23.50;99.90;;;;;;6149916;23;20164;-95
2022/08/08 11:33:12;;;;;;;4.07;1.50;;;23.50;1.00;;;;;;6184588;23;20148;-89
2022/08/08 11:36:17;;;;;;;4.10;2.23;;;23.30;1.00;;;;;;6158922;23;20139;-91
2022/08/08 11:39:40;;;;;;;5.23;2.10;;;23.40;1.00;;;;;;6158003;23;20169;-91
2022/08/08 11:42:56;;;;;;;3.00;1.53;;;23.50;1.00;;;;;;6184094;23;20180;-93
2022/08/08 11:49:29;;;;;;;7.53;1.97;;;23.60;99.90;;;;;;6064391;23;20242;-93
2022/08/08 11:55:34;;;;;;;3.67;1.67;;;23.60;1.00;;;;;;6066080;23;20245;-95
2022/08/08 11:58:11;;;;;;;6.17;1.77;;;23.90;1.00;;;;;;6064662;23;20141;-95
2022/08/08 12:01:30;;;;;;;5.17;1.57;;;23.70;1.00;;;;;;6122877;23;20194;-92
2022/08/08 12:04:20;;;;;;;9.50;2.20;;;23.40;1.00;;;;;;6083915;23;20154;-95
2022/08/08 12:07:07;;;;;;;5.33;1.67;;;23.60;83.60;;;;;;6184031;23;20174;-92
2022/08/08 12:09:47;;;;;;;3.93;1.97;;;23.90;99.90;;;;;;6183037;23;20130;-91
2022/08/08 12:12:24;;;;;;;4.73;1.50;;;24.10;86.60;;;;;;6158426;23;20149;-91
2022/08/08 12:15:03;;;;;;;3.30;1.60;;;24.00;1.00;;;;;;6158703;23;20154;-91
2022/08/08 12:17:40;;;;;;;4.47;1.67;;;24.00;6.70;;;;;;6183688;23;20138;-93
2022/08/08 12:20:12;;;;;;;3.63;1.53;;;23.80;1.00;;;;;;6157247;23;20233;-91
2022/08/08 12:23:21;;;;;;;;;;;;;;;;;;;;;
2022/08/08 12:26:41;;;;;;;3.97;1.73;;;23.70;1.00;;;;;;6177604;23;20597;-91
2022/08/08 12:29:30;;;;;;;2.73;1.33;;;23.60;1.00;;;;;;6123470;23;20161;-95
2022/08/08 12:32:11;;;;;;;3.97;1.80;;;23.70;1.00;;;;;;6170357;23;20158;-96
2022/08/08 12:34:43;;;;;;;5.70;1.60;;;23.70;1.00;;;;;;6171563;23;20177;-92
2022/08/08 12:37:25;;;;;;;4.83;1.50;;;23.70;99.90;;;;;;6170750;23;20233;-94
2022/08/08 12:40:20;;;;;;;3.13;1.20;;;23.90;99.90;;;;;;6140055;23;20150;-91
2022/08/08 12:46:22;;;;;;;5.30;1.40;;;24.20;1.00;;;;;;6164804;23;20157;-91
2022/08/08 12:49:04;;;;;;;2.90;1.43;;;24.50;1.00;;;;;;6142427;23;20245;-91
2022/08/08 12:51:43;;;;;;;2.60;1.40;;;24.60;1.00;;;;;;6118995;23;20174;-92
2022/08/08 12:54:25;;;;;;;3.60;1.70;;;24.60;1.00;;;;;;6141728;23;20150;-89
2022/08/08 12:57:28;;;;;;;4.53;1.50;;;24.60;1.00;;;;;;6140876;23;20154;-90
2022/08/08 13:00:39;;;;;;;3.57;1.27;;;24.30;1.00;;;;;;6163714;23;20162;-90
2022/08/08 13:03:11;;;;;;;3.40;1.37;;;24.20;99.90;;;;;;6115721;23;20166;-92
2022/08/08 13:05:40;;;;;;;2.60;1.30;;;24.40;99.90;;;;;;6138188;23;20193;-89
2022/08/08 13:08:17;;;;;;;5.53;1.80;;;24.40;12.00;;;;;;6136924;23;20221;-89
2022/08/08 13:10:56;;;;;;;5.17;1.90;;;24.50;99.90;;;;;;6115673;23;20158;-91
2022/08/08 13:13:31;;;;;;;4.00;1.50;;;24.50;99.90;;;;;;6158085;23;20169;-91
2022/08/08 13:16:52;;;;;;;3.80;1.50;;;24.40;99.90;;;;;;6133571;23;20149;-90
2022/08/08 13:19:30;;;;;;;2.37;1.50;;;24.60;99.90;;;;;;5984728;24;20194;-89
2022/08/08 13:21:56;;;;;;;5.50;1.17;;;24.30;1.00;;;;;;5974738;24;20249;-86
2022/08/08 13:24:22;;;;;;;5.23;1.47;;;24.20;99.90;;;;;;6134863;23;20154;-85
2022/08/08 13:26:58;;;;;;;3.57;1.33;;;24.10;1.00;;;;;;6143678;23;20170;-85
2022/08/08 13:29:23;;;;;;;3.10;1.57;;;24.20;99.90;;;;;;6145422;23;20142;-85
2022/08/08 13:31:52;;;;;;;4.83;1.40;;;24.40;99.90;;;;;;6144747;23;20155;-86
2022/08/08 13:34:23;;;;;;;2.93;1.33;;;24.60;1.00;;;;;;6142122;23;20158;-90
2022/08/08 13:40:12;;;;;;;3.13;1.50;;;24.50;1.00;;;;;;6176579;23;20149;-88
2022/08/08 13:42:41;;;;;;;4.00;1.53;;;24.60;1.00;;;;;;6183112;23;20150;-88
2022/08/08 13:45:18;;;;;;;3.97;1.40;;;24.40;1.00;;;;;;6157952;23;20139;-88
2022/08/08 13:48:18;;;;;;;3.53;1.57;;;24.20;1.00;;;;;;6157858;23;20142;-86
2022/08/08 13:51:03;;;;;;;3.33;1.60;;;24.20;1.00;;;;;;6133016;23;20247;-87
2022/08/08 13:53:30;;;;;;;5.90;1.87;;;24.20;99.90;;;;;;6152925;23;20162;-88
2022/08/08 13:56:04;;;;;;;4.20;2.13;;;24.30;1.00;;;;;;6152800;23;20145;-87
2022/08/08 13:58:51;;;;;;;3.87;1.37;;;24.40;1.00;;;;;;6176835;23;20155;-94
2022/08/08 14:01:27;;;;;;;3.10;1.47;;;24.30;1.00;;;;;;6152326;23;21294;-91
2022/08/08 14:03:56;;;;;;;4.00;1.57;;;24.30;1.00;;;;;;6146780;23;20159;-92
2022/08/08 14:06:25;;;;;;;3.20;1.40;;;24.50;1.00;;;;;;6144484;23;20167;-91
2022/08/08 14:08:56;;;;;;;3.93;1.60;;;24.50;99.90;;;;;;6095178;23;20220;-93
2022/08/08 14:11:26;;;;;;;5.63;1.50;;;24.70;1.00;;;;;;6118676;23;20236;-89
2022/08/08 14:13:53;;;;;;;4.03;1.30;;;24.60;1.00;;;;;;6118867;23;20175;-91
2022/08/08 14:16:22;;;;;;;3.83;1.30;;;24.80;1.00;;;;;;6120049;23;20163;-90
2022/08/08 14:19:01;;;;;;;3.07;1.43;;;24.80;14.50;;;;;;6115268;23;20148;-91
2022/08/08 14:21:42;;;;;;;2.63;1.33;;;24.90;1.00;;;;;;6092861;23;20384;-91
2022/08/08 14:24:10;;;;;;;3.93;1.60;;;25.00;99.90;;;;;;6092571;23;20249;-94
2022/08/08 14:27:17;;;;;;;4.43;1.30;;;25.00;99.90;;;;;;6112481;23;20152;-94
2022/08/08 14:30:27;;;;;;;2.87;1.20;;;24.90;99.90;;;;;;6113170;23;20155;-92
2022/08/08 14:32:58;;;;;;;3.77;1.40;;;25.00;99.90;;;;;;6112480;23;20158;-93
2022/08/08 14:35:27;;;;;;;3.17;1.30;;;25.10;99.90;;;;;;6090401;23;20170;-90
2022/08/08 14:38:40;;;;;;;2.77;1.37;;;25.20;99.90;;;;;;6110599;23;20183;-93
2022/08/08 14:44:40;;;;;;;2.80;1.10;;;25.00;99.90;;;;;;6116092;23;20219;-92